createdAt,value
2018-03-02T00:00:41.779Z,19.77
2018-03-02T00:02:45.247Z,17.07
2018-03-02T00:04:46.403Z,17.50
2018-03-02T00:06:47.456Z,16.53
2018-03-02T00:08:48.411Z,16.00
2018-03-02T00:10:49.374Z,17.40
2018-03-02T00:12:50.448Z,16.60
2018-03-02T00:14:51.488Z,19.83
2018-03-02T00:16:52.580Z,17.65
2018-03-02T00:18:53.620Z,16.27
2018-03-02T00:20:54.640Z,17.25
2018-03-02T00:22:56.779Z,16.15
2018-03-02T00:24:58.807Z,20.33
2018-03-02T00:26:59.859Z,17.10
2018-03-02T00:31:38.451Z,16.58
2018-03-02T00:33:39.567Z,16.40
2018-03-02T00:35:40.624Z,22.42
2018-03-02T00:37:41.648Z,21.00
2018-03-02T00:39:43.161Z,18.02
2018-03-02T00:41:44.258Z,21.33
2018-03-02T00:43:46.209Z,19.90
2018-03-02T00:45:47.232Z,21.70
2018-03-02T00:47:48.231Z,17.95
2018-03-02T00:49:49.275Z,19.42
2018-03-02T00:51:50.579Z,17.80
2018-03-02T00:53:51.608Z,16.10
2018-03-02T00:55:52.628Z,22.20
2018-03-02T00:58:04.992Z,18.73
2018-03-02T01:00:06.025Z,14.75
2018-03-02T01:02:07.042Z,17.87
2018-03-02T01:04:08.140Z,20.15
2018-03-02T01:06:09.139Z,22.05
2018-03-02T01:08:11.029Z,21.12
2018-03-02T01:10:12.086Z,16.25
2018-03-02T01:12:13.097Z,16.70
2018-03-02T01:14:14.098Z,16.75
2018-03-02T01:16:15.088Z,18.73
2018-03-02T01:18:16.111Z,14.05
2018-03-02T01:20:17.124Z,19.98
2018-03-02T01:22:18.148Z,18.23
2018-03-02T01:24:19.144Z,21.50
2018-03-02T01:26:20.206Z,19.73
2018-03-02T01:28:23.518Z,20.17
2018-03-02T01:30:24.635Z,16.45
2018-03-02T01:32:25.701Z,16.10
2018-03-02T01:34:26.908Z,19.12
2018-03-02T01:36:27.937Z,18.92
2018-03-02T01:38:28.913Z,21.17
2018-03-02T01:40:29.984Z,18.43
2018-03-02T01:42:31.058Z,26.65
2018-03-02T01:44:32.064Z,21.35
2018-03-02T01:46:33.201Z,18.10
2018-03-02T01:48:34.271Z,19.62
2018-03-02T01:50:35.268Z,17.80
2018-03-02T01:52:36.519Z,22.73
2018-03-02T01:54:37.543Z,20.05
2018-03-02T01:56:38.552Z,25.58
2018-03-02T01:58:39.545Z,22.95
2018-03-02T02:00:40.743Z,15.43
2018-03-02T02:02:41.757Z,21.05
2018-03-02T02:04:43.521Z,19.35
2018-03-02T02:06:44.507Z,18.80
2018-03-02T02:08:45.916Z,19.10
2018-03-02T02:10:46.943Z,18.75
2018-03-02T02:12:47.951Z,17.00
2018-03-02T02:14:48.994Z,19.17
2018-03-02T02:16:50.024Z,21.25
2018-03-02T02:18:51.011Z,19.27
2018-03-02T02:20:52.123Z,20.33
2018-03-02T02:22:53.116Z,18.12
2018-03-02T02:24:54.120Z,17.60
2018-03-02T02:26:55.090Z,17.75
2018-03-02T02:28:56.301Z,18.77
2018-03-02T02:30:57.631Z,26.47
2018-03-02T02:32:58.674Z,23.15
2018-03-02T02:34:59.717Z,21.10
2018-03-02T02:37:00.778Z,22.90
2018-03-02T02:39:02.384Z,22.50
2018-03-02T02:41:03.433Z,25.08
2018-03-02T02:43:04.564Z,22.15
2018-03-02T02:45:05.583Z,18.48
2018-03-02T02:47:06.621Z,22.95
2018-03-02T02:49:07.637Z,21.90
2018-03-02T02:51:08.609Z,28.40
2018-03-02T02:53:09.634Z,22.47
2018-03-02T02:55:10.643Z,21.65
2018-03-02T02:57:11.726Z,19.48
2018-03-02T02:59:12.841Z,18.60
2018-03-02T03:01:13.861Z,16.20
2018-03-02T03:03:14.887Z,18.62
2018-03-02T03:05:15.910Z,15.82
2018-03-02T03:07:16.920Z,20.52
2018-03-02T03:09:18.709Z,21.33
2018-03-02T03:11:19.716Z,23.70
2018-03-02T03:13:20.707Z,20.92
2018-03-02T03:15:21.671Z,20.17
2018-03-02T03:17:22.691Z,20.50
2018-03-02T03:19:23.682Z,19.55
2018-03-02T03:21:24.761Z,21.27
2018-03-02T03:23:25.793Z,21.20
2018-03-02T03:25:26.791Z,25.77
2018-03-02T03:27:28.183Z,23.37
2018-03-02T03:29:30.028Z,27.65
2018-03-02T03:31:31.073Z,22.75
2018-03-02T03:33:32.255Z,20.65
2018-03-02T03:35:33.312Z,25.40
2018-03-02T03:37:34.324Z,22.95
2018-03-02T03:39:35.282Z,30.65
2018-03-02T03:41:36.346Z,26.33
2018-03-02T03:43:37.502Z,20.12
2018-03-02T03:45:38.836Z,23.92
2018-03-02T03:47:39.915Z,22.45
2018-03-02T03:49:41.007Z,20.05
2018-03-02T03:51:42.040Z,21.35
2018-03-02T03:53:43.057Z,21.02
2018-03-02T03:55:44.779Z,23.00
2018-03-02T03:57:45.764Z,21.20
2018-03-02T03:59:46.744Z,26.58
2018-03-02T04:01:47.734Z,22.92
2018-03-02T04:03:48.728Z,22.02
2018-03-02T04:05:50.445Z,22.48
2018-03-02T04:07:51.548Z,22.62
2018-03-02T04:09:52.567Z,24.52
2018-03-02T04:11:53.579Z,22.42
2018-03-02T04:13:54.657Z,27.83
2018-03-02T04:15:55.657Z,20.77
2018-03-02T04:17:56.918Z,20.33
2018-03-02T04:19:57.960Z,23.58
2018-03-02T04:21:59.236Z,24.20
2018-03-02T04:24:00.272Z,28.10
2018-03-02T04:26:01.244Z,25.10
2018-03-02T04:28:02.236Z,18.27
2018-03-02T04:30:03.257Z,23.77
2018-03-02T04:32:04.255Z,21.58
2018-03-02T04:34:08.688Z,21.23
2018-03-02T04:36:09.795Z,21.25
2018-03-02T04:38:10.789Z,18.60
2018-03-02T04:40:11.950Z,24.27
2018-03-02T04:42:12.920Z,19.80
2018-03-02T04:44:13.922Z,27.27
2018-03-02T04:46:14.920Z,25.77
2018-03-02T04:48:17.067Z,22.58
2018-03-02T04:50:18.205Z,19.00
2018-03-02T04:52:19.286Z,22.25
2018-03-02T04:54:20.609Z,24.83
2018-03-02T04:56:21.693Z,19.62
2018-03-02T04:58:22.701Z,29.95
2018-03-02T05:00:26.312Z,23.30
2018-03-02T05:02:27.376Z,23.83
2018-03-02T05:04:28.362Z,20.52
2018-03-02T05:06:29.584Z,22.73
2018-03-02T05:08:30.680Z,28.40
2018-03-02T05:10:32.340Z,23.83
2018-03-02T05:12:33.336Z,31.58
2018-03-02T05:14:34.495Z,27.42
2018-03-02T05:16:35.475Z,23.35
2018-03-02T05:18:37.039Z,26.23
2018-03-02T05:20:38.353Z,24.08
2018-03-02T05:22:39.392Z,29.90
2018-03-02T05:24:40.876Z,24.67
2018-03-02T05:26:41.923Z,23.95
2018-03-02T05:28:45.289Z,22.20
2018-03-02T05:33:10.740Z,29.35
2018-03-02T05:35:11.791Z,25.50
2018-03-02T05:37:12.812Z,23.20
2018-03-02T05:39:13.808Z,25.40
2018-03-02T05:41:17.647Z,25.10
2018-03-02T05:43:18.729Z,29.73
2018-03-02T05:45:19.799Z,26.20
2018-03-02T05:47:20.829Z,22.37
2018-03-02T05:49:21.845Z,20.90
2018-03-02T05:51:22.844Z,20.90
2018-03-02T05:53:24.641Z,27.62
2018-03-02T05:55:25.675Z,21.65
2018-03-02T05:57:26.672Z,18.87
2018-03-02T05:59:27.660Z,25.58
2018-03-02T06:01:29.207Z,23.27
2018-03-02T06:03:30.266Z,24.23
2018-03-02T06:05:31.287Z,24.60
2018-03-02T06:12:48.219Z,24.63
2018-03-02T06:14:49.216Z,19.15
2018-03-02T06:16:50.225Z,28.30
2018-03-02T06:18:51.219Z,27.30
2018-03-02T06:20:52.216Z,24.83
2018-03-02T06:22:53.233Z,21.85
2018-03-02T06:24:54.518Z,24.60
2018-03-02T06:26:56.272Z,25.98
2018-03-02T06:28:57.384Z,25.50
2018-03-02T06:30:59.122Z,22.80
2018-03-02T06:33:00.208Z,26.33
2018-03-02T06:35:01.208Z,17.80
2018-03-02T06:37:02.259Z,25.10
2018-03-02T06:39:21.843Z,22.83
2018-03-02T06:41:22.857Z,32.30
2018-03-02T06:43:23.810Z,27.92
2018-03-02T06:45:24.926Z,27.03
2018-03-02T06:47:25.963Z,22.80
2018-03-02T06:49:26.991Z,20.30
2018-03-02T06:51:28.106Z,29.12
2018-03-02T06:53:29.292Z,22.20
2018-03-02T06:55:30.451Z,23.42
2018-03-02T06:57:31.514Z,26.70
2018-03-02T06:59:32.530Z,25.60
2018-03-02T07:01:33.501Z,32.03
2018-03-02T07:03:34.453Z,26.25
2018-03-02T07:05:35.692Z,25.67
2018-03-02T07:07:36.818Z,24.23
2018-03-02T07:09:37.817Z,26.15
2018-03-02T07:11:38.801Z,31.20
2018-03-02T07:13:41.803Z,26.42
2018-03-02T07:15:43.588Z,22.80
2018-03-02T07:17:44.619Z,24.98
2018-03-02T07:19:45.625Z,24.45
2018-03-02T07:21:47.880Z,29.37
2018-03-02T07:23:49.974Z,24.60
2018-03-02T07:25:51.098Z,27.92
2018-03-02T07:27:52.184Z,25.35
2018-03-02T07:29:54.629Z,21.12
2018-03-02T07:31:55.728Z,31.30
2018-03-02T07:33:56.937Z,29.92
2018-03-02T07:35:58.349Z,23.25
2018-03-02T07:37:59.583Z,27.45
2018-03-02T07:40:00.656Z,22.98
2018-03-02T07:42:01.763Z,32.00
2018-03-02T07:44:02.737Z,30.23
2018-03-02T07:46:03.745Z,22.07
2018-03-02T07:48:04.765Z,29.92
2018-03-02T07:50:05.856Z,27.48
2018-03-02T07:52:06.945Z,32.03
2018-03-02T07:54:07.995Z,28.05
2018-03-02T07:56:09.064Z,27.45
2018-03-02T07:58:10.079Z,27.85
2018-03-02T08:00:13.271Z,30.17
2018-03-02T08:02:47.975Z,31.30
2018-03-02T08:07:02.183Z,24.87
2018-03-02T08:09:04.191Z,32.90
2018-03-02T08:11:11.745Z,26.20
2018-03-02T08:15:52.823Z,26.45
2018-03-02T08:17:57.761Z,25.37
2018-03-02T08:32:46.985Z,40.17
2018-03-02T08:34:48.920Z,32.97
2018-03-02T08:36:51.788Z,36.38
2018-03-02T08:38:52.960Z,29.27
2018-03-02T08:40:54.116Z,28.20
2018-03-02T08:42:55.459Z,26.40
2018-03-02T08:44:57.471Z,31.37
2018-03-02T08:49:19.901Z,27.85
2018-03-02T08:51:21.460Z,39.65
2018-03-02T08:55:37.550Z,29.83
2018-03-02T08:57:38.574Z,34.75
2018-03-02T08:59:40.345Z,31.52
2018-03-02T09:01:42.326Z,28.73
2018-03-02T09:03:43.429Z,33.38
2018-03-02T09:05:44.367Z,30.98
2018-03-02T09:07:45.352Z,27.57
2018-03-02T09:09:49.399Z,27.63
2018-03-02T09:11:50.488Z,29.52
2018-03-02T09:14:20.552Z,26.65
2018-03-02T09:16:21.611Z,28.60
2018-03-02T09:18:22.743Z,36.90
2018-03-02T09:20:24.456Z,31.40
2018-03-02T09:22:25.448Z,23.48
2018-03-02T09:24:27.207Z,31.62
2018-03-02T09:26:28.248Z,33.03
2018-03-02T09:28:29.198Z,32.03
2018-03-02T09:30:37.264Z,31.40
2018-03-02T09:32:38.454Z,41.15
2018-03-02T09:34:41.783Z,31.83
2018-03-02T09:36:42.975Z,30.25
2018-03-02T09:38:49.506Z,38.13
2018-03-02T09:43:18.443Z,31.30
2018-03-02T09:45:19.450Z,31.77
2018-03-02T09:47:20.501Z,31.85
2018-03-02T09:49:22.371Z,34.55
2018-03-02T09:51:42.810Z,32.75
2018-03-02T09:53:44.408Z,32.30
2018-03-02T09:55:45.409Z,36.10
2018-03-02T09:57:46.715Z,32.10
2018-03-02T09:59:52.715Z,30.12
2018-03-02T10:01:53.881Z,31.58
2018-03-02T10:03:54.887Z,31.90
2018-03-02T10:05:55.892Z,34.33
2018-03-02T10:07:56.914Z,32.10
2018-03-02T10:09:57.917Z,37.85
2018-03-02T10:11:58.968Z,35.10
2018-03-02T10:13:59.976Z,31.67
2018-03-02T10:16:01.025Z,35.28
2018-03-02T10:18:02.011Z,33.05
2018-03-02T10:20:03.008Z,35.50
2018-03-02T10:22:03.976Z,32.30
2018-03-02T10:24:05.071Z,32.80
2018-03-02T10:26:06.070Z,36.97
2018-03-02T10:28:07.131Z,35.40
2018-03-02T10:30:08.235Z,29.27
2018-03-02T10:32:09.194Z,33.92
2018-03-02T10:34:10.159Z,31.87
2018-03-02T10:36:11.163Z,36.28
2018-03-02T10:38:12.251Z,34.17
2018-03-02T10:40:13.289Z,36.78
2018-03-02T10:42:14.292Z,32.63
2018-03-02T10:44:16.659Z,35.63
2018-03-02T10:46:17.725Z,35.30
2018-03-02T10:48:19.255Z,35.23
2018-03-02T10:50:20.303Z,37.28
2018-03-02T10:52:23.490Z,33.70
2018-03-02T10:54:25.255Z,39.90
2018-03-02T10:56:26.687Z,35.08
2018-03-02T10:58:28.129Z,31.47
2018-03-02T11:00:35.391Z,22.37
2018-03-02T11:02:42.387Z,31.00
2018-03-02T11:04:46.326Z,37.92
2018-03-02T11:06:49.208Z,35.83
2018-03-02T11:08:50.202Z,33.80
2018-03-02T11:10:53.569Z,32.30
2018-03-02T11:12:56.722Z,31.90
2018-03-02T11:14:57.797Z,33.58
2018-03-02T11:16:58.844Z,32.40
2018-03-02T11:18:59.806Z,36.50
2018-03-02T11:21:00.772Z,32.67
2018-03-02T11:25:12.713Z,35.45
2018-03-02T11:27:13.877Z,36.57
2018-03-02T11:29:15.791Z,41.05
2018-03-02T11:31:16.852Z,37.17
2018-03-02T11:33:17.830Z,33.00
2018-03-02T11:35:20.439Z,35.25
2018-03-02T11:37:21.506Z,36.60
2018-03-02T11:39:22.461Z,36.97
2018-03-02T11:41:23.686Z,33.10
2018-03-02T11:43:24.752Z,43.63
2018-03-02T11:45:25.710Z,34.20
2018-03-02T11:47:26.718Z,33.77
2018-03-02T11:49:28.211Z,37.53
2018-03-02T11:51:29.199Z,32.00
2018-03-02T11:53:30.623Z,35.63
2018-03-02T11:55:31.683Z,32.72
2018-03-02T11:57:32.892Z,43.25
2018-03-02T11:59:34.615Z,36.70
2018-03-02T12:01:35.584Z,36.00
2018-03-02T12:03:37.286Z,35.50
2018-03-02T12:05:38.976Z,35.00
2018-03-02T12:07:40.074Z,31.87
2018-03-02T12:09:41.472Z,32.63
2018-03-02T12:11:42.558Z,38.78
2018-03-02T12:13:44.788Z,33.67
2018-03-02T12:15:53.875Z,37.47
2018-03-02T12:17:58.408Z,37.17
2018-03-02T12:19:59.473Z,38.97
2018-03-02T12:22:00.477Z,36.00
2018-03-02T12:24:01.485Z,33.27
2018-03-02T12:26:03.280Z,31.87
2018-03-02T12:28:04.699Z,34.30
2018-03-02T12:30:05.750Z,34.00
2018-03-02T12:32:06.766Z,33.40
2018-03-02T12:34:08.078Z,39.17
2018-03-02T12:36:09.144Z,39.27
2018-03-02T12:38:10.107Z,39.70
2018-03-02T12:42:36.439Z,34.93
2018-03-02T12:44:38.309Z,36.45
2018-03-02T12:46:39.223Z,34.57
2018-03-02T12:48:41.412Z,37.17
2018-03-02T12:50:42.692Z,37.40
2018-03-02T12:52:43.682Z,37.90
2018-03-02T12:54:44.877Z,36.60
2018-03-02T12:56:46.742Z,39.85
2018-03-02T12:58:48.231Z,36.50
2018-03-02T13:00:49.223Z,41.58
2018-03-02T13:02:50.185Z,37.37
2018-03-02T13:04:51.179Z,40.30
2018-03-02T13:06:52.138Z,39.07
2018-03-02T13:08:53.218Z,41.10
2018-03-02T13:10:54.476Z,38.07
2018-03-02T13:12:55.457Z,40.80
2018-03-02T13:14:56.437Z,37.90
2018-03-02T13:16:57.412Z,40.12
2018-03-02T13:18:58.641Z,37.90
2018-03-02T13:20:59.660Z,37.47
2018-03-02T13:23:00.609Z,36.37
2018-03-02T13:25:01.556Z,36.70
2018-03-02T13:27:15.001Z,38.80
2018-03-02T13:29:16.179Z,39.07
2018-03-02T13:31:18.207Z,40.58
2018-03-02T13:33:31.493Z,36.80
2018-03-02T13:35:33.552Z,36.27
2018-03-02T13:37:34.708Z,38.40
2018-03-02T13:39:52.430Z,38.43
2018-03-02T13:42:00.420Z,42.40
2018-03-02T13:44:01.481Z,36.57
2018-03-02T13:46:02.538Z,41.55
2018-03-02T13:48:33.441Z,40.10
2018-03-02T13:50:34.488Z,34.77
2018-03-02T13:52:35.456Z,36.63
2018-03-02T13:54:36.546Z,37.27
2018-03-02T13:56:49.910Z,40.92
2018-03-02T13:58:51.095Z,38.07
2018-03-02T14:00:52.336Z,34.30
2018-03-02T14:03:05.744Z,36.20
2018-03-02T14:05:06.830Z,36.17
2018-03-02T14:07:07.845Z,39.20
2018-03-02T14:09:08.856Z,36.23
2018-03-02T14:11:09.824Z,36.50
2018-03-02T14:13:11.624Z,35.33
2018-03-02T14:15:12.627Z,37.40
2018-03-02T14:17:14.878Z,36.40
2018-03-02T14:19:15.838Z,39.75
2018-03-02T14:21:20.163Z,40.57
2018-03-02T14:23:22.824Z,41.08
2018-03-02T14:25:23.791Z,37.73
2018-03-02T14:27:25.132Z,45.67
2018-03-02T14:29:26.201Z,38.75
2018-03-02T14:31:27.267Z,34.07
2018-03-02T14:33:28.221Z,36.00
2018-03-02T14:35:29.268Z,35.50
2018-03-02T14:37:30.260Z,36.63
2018-03-02T14:39:31.297Z,38.83
2018-03-02T14:41:32.869Z,38.60
2018-03-02T14:43:34.028Z,37.87
2018-03-02T14:45:35.089Z,41.45
2018-03-02T14:47:37.248Z,37.80
2018-03-02T14:49:38.629Z,35.20
2018-03-02T14:51:39.662Z,36.80
2018-03-02T14:53:41.724Z,39.13
2018-03-02T14:55:43.092Z,40.00
2018-03-02T14:57:44.265Z,37.00
2018-03-02T14:59:45.230Z,39.10
2018-03-02T15:01:46.373Z,37.23
2018-03-02T15:03:47.343Z,40.90
2018-03-02T15:05:48.428Z,36.90
2018-03-02T15:07:49.363Z,35.73
2018-03-02T15:10:05.020Z,34.57
2018-03-02T15:12:06.446Z,36.20
2018-03-02T15:14:07.520Z,36.87
2018-03-02T15:16:08.598Z,34.90
2018-03-02T15:18:11.072Z,39.13
2018-03-02T15:22:18.675Z,35.00
2018-03-02T15:24:19.876Z,34.27
2018-03-02T15:26:22.138Z,32.87
2018-03-02T15:28:23.325Z,34.03
2018-03-02T15:30:24.492Z,31.40
2018-03-02T15:32:25.575Z,36.05
2018-03-02T15:34:26.640Z,33.10
2018-03-02T15:36:27.923Z,35.80
2018-03-02T15:38:29.803Z,34.73
2018-03-02T15:40:30.855Z,32.80
2018-03-02T15:42:31.914Z,31.70
2018-03-02T15:44:32.940Z,32.23
2018-03-02T15:46:33.912Z,32.10
2018-03-02T15:48:34.932Z,34.47
2018-03-02T15:50:35.921Z,31.80
2018-03-02T15:52:37.268Z,28.40
2018-03-02T15:54:39.364Z,32.85
2018-03-02T15:56:40.800Z,32.80
2018-03-02T15:58:41.816Z,33.22
2018-03-02T16:00:42.835Z,33.83
2018-03-02T16:02:43.800Z,36.73
2018-03-02T16:04:45.562Z,35.40
2018-03-02T16:06:46.507Z,34.83
2018-03-02T16:08:47.469Z,32.97
2018-03-02T16:10:48.406Z,38.70
2018-03-02T16:12:52.895Z,34.67
2018-03-02T16:14:53.885Z,39.85
2018-03-02T16:16:55.469Z,33.77
2018-03-02T16:18:56.629Z,38.17
2018-03-02T16:26:14.247Z,40.28
2018-03-02T16:28:15.325Z,38.83
2018-03-02T16:30:16.434Z,42.37
2018-03-02T16:32:17.616Z,38.17
2018-03-02T16:34:18.805Z,34.70
2018-03-02T16:36:20.002Z,30.98
2018-03-02T16:38:21.154Z,31.67
2018-03-02T16:40:22.292Z,31.75
2018-03-02T16:42:28.027Z,30.98
2018-03-02T16:44:29.193Z,27.65
2018-03-02T16:46:30.210Z,29.05
2018-03-02T16:48:31.148Z,35.78
2018-03-02T16:50:32.096Z,31.10
2018-03-02T16:59:47.703Z,28.75
2018-03-02T17:01:49.020Z,28.50
2018-03-02T17:03:56.488Z,29.20
2018-03-02T17:06:00.337Z,27.37
2018-03-02T17:08:22.975Z,29.63
2018-03-02T17:10:38.894Z,31.77
2018-03-02T17:12:40.203Z,30.37
2018-03-02T17:14:41.305Z,35.50
2018-03-02T17:16:57.474Z,31.60
2018-03-02T17:21:37.056Z,34.13
2018-03-02T17:23:38.328Z,27.17
2018-03-02T17:25:39.332Z,36.70
2018-03-02T17:27:40.303Z,33.40
2018-03-02T17:29:42.120Z,30.73
2018-03-02T17:31:45.528Z,27.08
2018-03-02T17:33:46.538Z,25.80
2018-03-02T17:35:47.582Z,27.37
2018-03-02T17:37:48.536Z,27.25
2018-03-02T17:39:50.388Z,24.65
2018-03-02T17:41:51.409Z,21.20
2018-03-02T17:43:52.720Z,30.27
2018-03-02T17:45:53.996Z,29.90
2018-03-02T18:11:44.277Z,27.92
2018-03-02T18:13:49.798Z,26.00
2018-03-02T18:15:50.805Z,18.87
2018-03-02T18:17:52.524Z,25.65
2018-03-02T18:19:57.968Z,25.92
2018-03-02T18:24:50.620Z,32.92
2018-03-02T18:26:51.734Z,28.60
2018-03-02T18:28:53.093Z,25.20
2018-03-02T18:30:55.412Z,26.50
2018-03-02T18:32:56.927Z,25.10
2018-03-02T18:34:58.068Z,24.60
2018-03-02T18:36:59.075Z,24.87
2018-03-02T18:39:00.208Z,24.12
2018-03-02T18:41:01.321Z,22.35
2018-03-02T18:43:03.194Z,24.23
2018-03-02T18:45:04.420Z,24.00
2018-03-02T18:47:05.469Z,21.48
2018-03-02T18:49:21.248Z,21.48
2018-03-02T18:51:22.286Z,23.55
2018-03-02T18:53:23.280Z,23.12
2018-03-02T18:55:24.281Z,23.20
2018-03-02T19:00:28.476Z,28.20
2018-03-02T19:02:51.051Z,26.52
2018-03-02T19:04:52.427Z,23.52
2018-03-02T19:06:53.415Z,27.67
2018-03-02T19:11:31.746Z,22.55
2018-03-02T19:13:32.776Z,22.05
2018-03-02T19:15:33.790Z,22.15
2018-03-02T19:20:04.598Z,24.25
2018-03-02T19:22:05.711Z,22.45
2018-03-02T19:24:06.827Z,27.45
2018-03-02T19:35:50.626Z,29.00
2018-03-02T19:37:52.350Z,29.23
2018-03-02T19:39:57.150Z,23.77
2018-03-02T19:41:58.471Z,26.08
2018-03-02T19:44:00.065Z,23.52
2018-03-02T19:46:01.183Z,26.80
2018-03-02T19:48:03.347Z,21.85
2018-03-02T19:50:04.453Z,22.30
2018-03-02T19:52:25.678Z,33.90
2018-03-02T19:54:26.692Z,21.35
2018-03-02T19:56:27.647Z,27.47
2018-03-02T19:58:29.448Z,23.50
2018-03-02T20:00:30.901Z,29.15
2018-03-02T20:02:31.942Z,24.60
2018-03-02T20:04:32.912Z,20.33
2018-03-02T20:06:55.529Z,24.50
2018-03-02T20:11:26.861Z,32.30
2018-03-02T20:13:44.384Z,25.73
2018-03-02T20:15:46.095Z,27.25
2018-03-02T20:17:51.536Z,30.23
2018-03-02T20:19:55.615Z,26.87
2018-03-02T20:34:57.150Z,26.30
2018-03-02T20:39:42.368Z,30.45
2018-03-02T20:41:50.498Z,25.98
2018-03-02T20:44:52.006Z,24.35
2018-03-02T20:51:51.396Z,28.70
2018-03-02T20:53:52.416Z,27.55
2018-03-02T20:55:53.452Z,24.75
2018-03-02T21:00:22.423Z,26.37
2018-03-02T21:02:23.472Z,22.40
2018-03-02T21:04:50.260Z,31.70
2018-03-02T21:06:51.314Z,26.80
2018-03-02T21:14:20.913Z,23.27
2018-03-02T21:16:21.917Z,22.25
2018-03-02T21:18:22.919Z,21.42
2018-03-02T21:22:52.413Z,20.30
2018-03-02T21:27:02.451Z,23.70
2018-03-02T21:31:41.810Z,21.75
2018-03-02T21:33:42.954Z,20.67
2018-03-02T21:35:44.061Z,25.42
2018-03-02T21:37:45.190Z,23.52
2018-03-02T21:40:06.556Z,26.35
2018-03-02T21:42:20.575Z,25.70
2018-03-02T21:44:25.738Z,21.95
2018-03-02T21:46:29.326Z,25.50
2018-03-02T21:48:30.670Z,23.90
2018-03-02T21:50:35.704Z,28.58
2018-03-02T21:52:38.798Z,26.62
2018-03-02T21:55:04.901Z,22.23
2018-03-02T22:01:30.281Z,22.87
2018-03-02T22:03:31.504Z,22.13
2018-03-02T22:05:32.525Z,22.20
2018-03-02T22:07:33.486Z,23.83
2018-03-02T22:09:34.906Z,21.27
2018-03-02T22:11:35.991Z,27.27
2018-03-02T22:13:37.083Z,23.15
2018-03-02T22:15:38.096Z,24.30
2018-03-02T22:17:39.866Z,21.67
2018-03-02T22:19:40.942Z,21.83
2018-03-02T22:21:41.979Z,20.77
2018-03-02T22:23:43.067Z,19.60
2018-03-02T22:28:11.586Z,24.90
2018-03-02T22:30:12.550Z,20.73
2018-03-02T22:32:15.092Z,24.50
2018-03-02T22:39:14.662Z,22.90
2018-03-02T22:49:08.838Z,22.13
2018-03-02T22:53:41.559Z,25.77
2018-03-02T23:03:35.773Z,21.98
2018-03-02T23:05:36.839Z,23.87
2018-03-02T23:14:40.829Z,25.02
2018-03-02T23:32:32.831Z,22.02
2018-03-02T23:37:11.547Z,25.70
2018-03-02T23:39:13.547Z,23.65
2018-03-02T23:41:25.653Z,21.77
2018-03-02T23:43:36.090Z,21.48
2018-03-02T23:48:03.873Z,24.80
2018-03-02T23:50:04.940Z,23.35
2018-03-02T23:52:13.601Z,29.45
2018-03-02T23:54:38.044Z,26.77
2018-03-02T23:56:50.070Z,22.60
2018-03-02T23:58:51.077Z,27.48
